Terminal Aerodrome Forecast
Issued by NWS

Home | Current Version | Previous Version | Text Only | Print | Product List | Glossary On
Versions: 1 2 3 4 5 6 7 8 9 10 11 12 13 14
000
FTUS46 KPDT 021720
TAFBDN
TAF
KBDN 021720Z 0218/0318 34008KT P6SM SCT120 BKN200
     FM022200 34010G16KT P6SM VCSH SCT100 BKN150
     FM030300 31008KT P6SM -SHRA FEW080 SCT100 BKN150
     FM030700 21005KT P6SM FEW080 SCT100 OVC120=

USA.gov is the U.S. government's official web portal to all federal, state and local government web resources and services.